Time;durP1;ratioP1;P1;durP2;ratioP2;P2;SDS_P1;SDS_P2;PMS_P1;PMS_P2;Temp;Humidity;BMP_temperature;BMP_pressure;BME280_temperature;BME280_humidity;BME280_pressure;Samples;Min_cycle;Max_cycle;Signal;HPM_P1;HPM_P2
2023/03/08 00:01:37;;;;;;;3.30;2.87;;;1.30;99.90;;;;;;5076866;28;20180;-85
2023/03/08 00:04:03;;;;;;;4.37;2.80;;;1.40;99.90;;;;;;5076770;28;20655;-86
2023/03/08 00:06:28;;;;;;;4.73;3.07;;;1.40;99.90;;;;;;5077151;28;20173;-85
2023/03/08 00:08:57;;;;;;;3.20;2.70;;;1.40;99.90;;;;;;5076718;28;20208;-88
2023/03/08 00:11:23;;;;;;;4.57;3.07;;;1.40;99.90;;;;;;5076951;28;20177;-85
2023/03/08 00:13:49;;;;;;;4.80;2.77;;;1.40;99.90;;;;;;5076884;28;20169;-85
2023/03/08 00:16:15;;;;;;;4.17;3.20;;;1.50;99.90;;;;;;5076502;28;20579;-85
2023/03/08 00:18:41;;;;;;;4.27;2.63;;;1.50;99.90;;;;;;5076165;28;20265;-86
2023/03/08 00:21:12;;;;;;;4.33;3.00;;;1.50;99.90;;;;;;5076578;28;20172;-85
2023/03/08 00:23:38;;;;;;;3.33;2.80;;;1.50;99.90;;;;;;5075472;28;20169;-84
2023/03/08 00:26:04;;;;;;;3.97;2.87;;;1.50;99.90;;;;;;5057640;28;20639;-85
2023/03/08 00:28:30;;;;;;;5.13;3.37;;;1.50;99.90;;;;;;5075930;28;20243;-84
2023/03/08 00:31:04;;;;;;;3.80;2.93;;;1.50;99.90;;;;;;5075420;28;20177;-85
2023/03/08 00:33:31;;;;;;;3.70;2.80;;;1.50;99.90;;;;;;5075858;28;20283;-86
2023/03/08 00:36:00;;;;;;;3.60;3.00;;;1.40;99.90;;;;;;5057704;28;20173;-84
2023/03/08 00:38:27;;;;;;;5.70;3.47;;;1.40;99.90;;;;;;5057447;28;20200;-85
2023/03/08 00:40:53;;;;;;;4.23;3.00;;;1.40;99.90;;;;;;5075161;28;20169;-84
2023/03/08 00:43:19;;;;;;;3.83;3.00;;;1.40;99.90;;;;;;5057497;28;20173;-84
2023/03/08 00:45:44;;;;;;;4.07;3.00;;;1.40;99.90;;;;;;5075018;28;20173;-84
2023/03/08 00:48:10;;;;;;;5.10;3.60;;;1.40;99.90;;;;;;5057613;28;20222;-85
2023/03/08 00:50:36;;;;;;;4.47;3.40;;;1.40;99.90;;;;;;5056945;28;20181;-85
2023/03/08 00:53:02;;;;;;;4.20;3.00;;;1.40;99.90;;;;;;5075136;28;20730;-84
2023/03/08 00:55:28;;;;;;;4.67;3.27;;;1.30;99.90;;;;;;5075078;28;20551;-84
2023/03/08 00:57:53;;;;;;;4.40;3.23;;;1.30;99.90;;;;;;5057139;28;20193;-84
2023/03/08 01:00:19;;;;;;;4.97;3.47;;;1.40;99.90;;;;;;5073647;28;20179;-85
2023/03/08 01:02:45;;;;;;;5.43;3.50;;;1.40;99.90;;;;;;5057485;28;20215;-85
2023/03/08 01:05:10;;;;;;;4.83;3.43;;;1.40;99.90;;;;;;5056955;28;20176;-87
2023/03/08 01:07:36;;;;;;;5.53;3.43;;;1.40;99.90;;;;;;5057078;28;20214;-84
2023/03/08 01:10:04;;;;;;;4.30;3.20;;;1.40;99.90;;;;;;5056596;28;20208;-84
2023/03/08 01:12:31;;;;;;;5.70;3.67;;;1.40;99.90;;;;;;5056930;28;20184;-84
2023/03/08 01:14:57;;;;;;;3.90;3.13;;;1.50;99.90;;;;;;5074813;28;20523;-85
2023/03/08 01:17:23;;;;;;;4.20;3.10;;;1.40;99.90;;;;;;5074832;28;20196;-85
2023/03/08 01:19:48;;;;;;;5.33;3.73;;;1.40;99.90;;;;;;5056482;28;20279;-84
2023/03/08 01:22:14;;;;;;;3.93;3.00;;;1.40;99.90;;;;;;5074611;28;20176;-84
2023/03/08 01:24:44;;;;;;;4.33;3.10;;;1.40;99.90;;;;;;5074817;28;20173;-84
2023/03/08 01:27:09;;;;;;;4.87;3.13;;;1.40;99.90;;;;;;5074723;28;20235;-86
2023/03/08 01:29:35;;;;;;;5.27;3.50;;;1.40;99.90;;;;;;5056658;28;20736;-84
2023/03/08 01:32:01;;;;;;;5.83;3.47;;;1.40;99.90;;;;;;5074761;28;20177;-84
2023/03/08 01:34:26;;;;;;;5.77;3.77;;;1.40;99.90;;;;;;5056965;28;20181;-84
2023/03/08 01:36:52;;;;;;;6.67;3.93;;;1.50;99.90;;;;;;5074659;28;20173;-85
2023/03/08 01:39:17;;;;;;;5.17;3.50;;;1.50;99.90;;;;;;5056558;28;20579;-84
2023/03/08 01:41:43;;;;;;;4.57;3.27;;;1.40;99.90;;;;;;5056315;28;20174;-84
2023/03/08 01:44:17;;;;;;;5.50;3.83;;;1.50;99.90;;;;;;5056645;28;20184;-84
2023/03/08 01:46:43;;;;;;;6.40;4.33;;;1.40;99.90;;;;;;5056918;28;20177;-84
2023/03/08 01:49:10;;;;;;;5.60;3.90;;;1.50;99.90;;;;;;5074696;28;20196;-85
2023/03/08 01:51:46;;;;;;;6.17;3.83;;;1.50;99.90;;;;;;5055940;28;20188;-84
2023/03/08 01:54:14;;;;;;;5.93;4.07;;;1.50;99.90;;;;;;5056463;28;20181;-84
2023/03/08 01:56:41;;;;;;;5.70;3.93;;;1.50;99.90;;;;;;5074376;28;20252;-84
2023/03/08 01:59:07;;;;;;;6.00;3.93;;;1.60;99.90;;;;;;5074433;28;20216;-84
2023/03/08 02:01:33;;;;;;;5.20;3.43;;;1.60;99.90;;;;;;5056301;28;20173;-84
2023/03/08 02:03:59;;;;;;;5.90;3.77;;;1.60;99.90;;;;;;5056578;28;20643;-84
2023/03/08 02:06:26;;;;;;;6.30;4.03;;;1.50;99.90;;;;;;5056510;28;20272;-85
2023/03/08 02:08:52;;;;;;;5.93;4.17;;;1.50;99.90;;;;;;5074066;28;20303;-84
2023/03/08 02:11:21;;;;;;;6.93;4.13;;;1.40;99.90;;;;;;5074595;28;20201;-84
2023/03/08 02:13:48;;;;;;;7.33;4.20;;;1.30;99.90;;;;;;5056440;28;20212;-84
2023/03/08 02:16:15;;;;;;;6.10;3.97;;;1.30;99.90;;;;;;5056375;28;20203;-84
2023/03/08 02:18:56;;;;;;;5.93;3.87;;;1.30;99.90;;;;;;5056268;28;20208;-84
2023/03/08 02:21:22;;;;;;;5.47;3.60;;;1.30;99.90;;;;;;5055903;28;20200;-84
2023/03/08 02:23:48;;;;;;;4.90;3.53;;;1.30;99.90;;;;;;5055891;28;20176;-85
2023/03/08 02:26:14;;;;;;;5.80;3.70;;;1.30;99.90;;;;;;5055925;28;20177;-85
2023/03/08 02:28:40;;;;;;;6.40;3.70;;;1.30;99.90;;;;;;5055819;28;20193;-85
2023/03/08 02:31:06;;;;;;;5.10;3.80;;;1.40;99.90;;;;;;5055484;28;20234;-84
2023/03/08 02:33:35;;;;;;;5.87;4.10;;;1.30;99.90;;;;;;5055572;28;20315;-84
2023/03/08 02:36:02;;;;;;;5.20;3.93;;;1.30;99.90;;;;;;5073472;28;20648;-84
2023/03/08 02:38:28;;;;;;;6.20;4.07;;;1.30;99.90;;;;;;5055356;28;20269;-84
2023/03/08 02:40:54;;;;;;;6.17;4.37;;;1.40;99.90;;;;;;5055437;28;20573;-84
2023/03/08 02:43:20;;;;;;;6.13;4.30;;;1.30;99.90;;;;;;5055530;28;20169;-84
2023/03/08 02:45:46;;;;;;;5.37;3.97;;;1.40;99.90;;;;;;5073739;28;20185;-84
2023/03/08 02:48:13;;;;;;;6.13;4.40;;;1.40;99.90;;;;;;5055156;28;20192;-84
2023/03/08 02:50:38;;;;;;;5.90;4.20;;;1.40;99.90;;;;;;5055353;28;20644;-84
2023/03/08 02:53:04;;;;;;;6.00;4.20;;;1.30;99.90;;;;;;5073090;28;20173;-84
2023/03/08 02:55:30;;;;;;;6.63;4.07;;;1.30;99.90;;;;;;5072994;28;20180;-84
2023/03/08 02:57:55;;;;;;;6.83;4.67;;;1.30;99.90;;;;;;5055200;28;20193;-84
2023/03/08 03:00:21;;;;;;;5.67;4.23;;;1.20;99.90;;;;;;5055294;28;20596;-84
2023/03/08 03:02:47;;;;;;;5.43;3.90;;;1.20;99.90;;;;;;5055287;28;20174;-84
2023/03/08 03:05:13;;;;;;;6.77;4.03;;;1.30;99.90;;;;;;5055280;28;20195;-85
2023/03/08 03:07:40;;;;;;;5.97;4.17;;;1.30;99.90;;;;;;5055008;28;20173;-86
2023/03/08 03:10:08;;;;;;;7.07;4.27;;;1.30;99.90;;;;;;5072931;28;20225;-85
2023/03/08 03:12:33;;;;;;;6.73;4.53;;;1.30;99.90;;;;;;5072751;28;20181;-84
2023/03/08 03:15:04;;;;;;;6.13;4.50;;;1.30;99.90;;;;;;5055240;28;20248;-85
2023/03/08 03:17:30;;;;;;;6.07;4.60;;;1.30;99.90;;;;;;5054989;28;20176;-86
2023/03/08 03:19:56;;;;;;;5.57;4.17;;;1.30;99.90;;;;;;5054313;28;20189;-87
2023/03/08 03:22:21;;;;;;;5.03;4.13;;;1.20;99.90;;;;;;5054657;28;20206;-84
2023/03/08 03:24:51;;;;;;;5.63;4.33;;;1.20;99.90;;;;;;5072080;28;20585;-85
2023/03/08 03:27:17;;;;;;;6.00;4.00;;;1.20;99.90;;;;;;5072642;28;20173;-85
2023/03/08 03:29:43;;;;;;;6.80;4.60;;;1.20;99.90;;;;;;5054424;28;20212;-84
2023/03/08 03:32:09;;;;;;;6.40;4.43;;;1.20;99.90;;;;;;5054583;28;20180;-85
2023/03/08 03:34:34;;;;;;;6.00;4.40;;;1.10;99.90;;;;;;5072371;28;20166;-86
2023/03/08 03:37:00;;;;;;;6.47;4.57;;;1.10;99.90;;;;;;5054341;28;20259;-84
2023/03/08 03:39:25;;;;;;;7.30;4.90;;;1.20;99.90;;;;;;5054251;28;20217;-85
2023/03/08 03:41:51;;;;;;;7.00;5.07;;;1.20;99.90;;;;;;5054177;28;20165;-84
2023/03/08 03:44:17;;;;;;;7.90;5.00;;;1.20;99.90;;;;;;5054422;28;20222;-86
2023/03/08 03:46:42;;;;;;;6.30;4.63;;;1.20;99.90;;;;;;5054456;28;20245;-84
2023/03/08 03:49:08;;;;;;;7.17;5.30;;;1.20;99.90;;;;;;5054069;28;20201;-84
2023/03/08 03:51:33;;;;;;;7.97;5.27;;;1.20;99.90;;;;;;5053950;28;20185;-85
2023/03/08 03:53:59;;;;;;;7.97;5.50;;;1.10;99.90;;;;;;5054359;28;20173;-84
2023/03/08 03:56:26;;;;;;;6.83;5.13;;;1.10;99.90;;;;;;5054705;28;20184;-85
2023/03/08 03:58:52;;;;;;;6.37;4.70;;;1.10;99.90;;;;;;5053936;28;20591;-88
2023/03/08 04:01:27;;;;;;;7.87;5.23;;;1.10;99.90;;;;;;5053981;28;20191;-84
2023/03/08 04:03:53;;;;;;;6.10;4.03;;;1.20;99.90;;;;;;5054420;28;20593;-85
2023/03/08 04:06:21;;;;;;;5.90;4.30;;;1.20;99.90;;;;;;5054404;28;20174;-84
2023/03/08 04:08:47;;;;;;;6.60;4.27;;;1.20;99.90;;;;;;5072020;28;20209;-84
2023/03/08 04:11:16;;;;;;;5.23;4.27;;;1.20;99.90;;;;;;5054015;28;20180;-84
2023/03/08 04:13:42;;;;;;;4.30;3.37;;;1.30;99.90;;;;;;5072006;28;20252;-84
2023/03/08 04:16:23;;;;;;;4.40;3.20;;;1.20;99.90;;;;;;5072017;28;20624;-84
2023/03/08 04:18:54;;;;;;;4.97;3.50;;;1.20;99.90;;;;;;5054179;28;20675;-84
2023/03/08 04:21:20;;;;;;;3.77;3.20;;;1.10;99.90;;;;;;5072226;28;20177;-84
2023/03/08 04:23:46;;;;;;;4.27;3.13;;;1.20;99.90;;;;;;5072153;28;20592;-84
2023/03/08 04:26:12;;;;;;;4.67;3.33;;;1.10;99.90;;;;;;5054122;28;20177;-84
2023/03/08 04:28:38;;;;;;;4.30;3.60;;;1.10;99.90;;;;;;5053801;28;20193;-84
2023/03/08 04:31:19;;;;;;;5.23;3.10;;;1.10;99.90;;;;;;5072083;28;20185;-84
2023/03/08 04:33:45;;;;;;;4.33;3.30;;;1.00;99.90;;;;;;5054235;28;20554;-84
2023/03/08 04:36:12;;;;;;;3.97;3.17;;;0.90;99.90;;;;;;5074225;28;20173;-85
2023/03/08 04:38:38;;;;;;;3.93;3.00;;;0.90;99.90;;;;;;5075724;28;20217;-84
2023/03/08 04:41:10;;;;;;;5.20;3.20;;;1.00;99.90;;;;;;5057595;28;20177;-85
2023/03/08 04:43:42;;;;;;;3.77;2.97;;;1.00;99.90;;;;;;5076229;28;20177;-84
2023/03/08 04:46:08;;;;;;;4.00;3.17;;;1.00;99.90;;;;;;5075999;28;20701;-83
2023/03/08 04:48:33;;;;;;;4.90;3.30;;;1.00;99.90;;;;;;5057804;28;20279;-86
2023/03/08 04:51:02;;;;;;;4.13;3.07;;;1.00;99.90;;;;;;5075757;28;20662;-84
2023/03/08 04:53:29;;;;;;;4.30;2.90;;;1.00;99.90;;;;;;5057887;28;20188;-84
2023/03/08 04:55:55;;;;;;;4.97;3.33;;;1.00;99.90;;;;;;5075421;28;20271;-84
2023/03/08 04:58:20;;;;;;;4.47;3.43;;;0.90;99.90;;;;;;5057900;28;20216;-84
2023/03/08 05:00:46;;;;;;;3.77;3.03;;;1.00;99.90;;;;;;5057978;28;20177;-84
2023/03/08 05:03:12;;;;;;;4.47;3.23;;;1.00;99.90;;;;;;5076167;28;20181;-84
2023/03/08 05:05:46;;;;;;;4.33;3.57;;;1.00;99.90;;;;;;5076270;28;20176;-86
2023/03/08 05:10:37;;;;;;;5.07;3.83;;;1.00;99.90;;;;;;5050990;22;20234;-84
2023/03/08 05:13:02;;;;;;;4.50;3.40;;;0.90;99.90;;;;;;5034774;28;20194;-84
2023/03/08 05:15:28;;;;;;;5.00;3.80;;;0.90;99.90;;;;;;5034580;28;20209;-84
2023/03/08 05:17:54;;;;;;;5.63;3.77;;;0.80;99.90;;;;;;5016576;28;20198;-84
2023/03/08 05:20:19;;;;;;;5.20;4.00;;;0.90;99.90;;;;;;5008993;28;20199;-84
2023/03/08 05:22:45;;;;;;;5.63;3.80;;;0.80;99.90;;;;;;5018097;28;20171;-85
2023/03/08 05:25:11;;;;;;;6.10;4.10;;;0.80;99.90;;;;;;5034119;28;20664;-83
2023/03/08 05:27:36;;;;;;;6.23;4.30;;;0.90;99.90;;;;;;5033157;28;20173;-84
2023/03/08 05:30:05;;;;;;;5.47;4.17;;;0.90;99.90;;;;;;5032668;28;20222;-84
2023/03/08 05:32:31;;;;;;;5.60;4.13;;;1.00;99.90;;;;;;5032849;28;20265;-84
2023/03/08 05:34:56;;;;;;;5.97;3.93;;;1.00;99.90;;;;;;5034100;28;20261;-84
2023/03/08 05:37:24;;;;;;;5.43;3.97;;;1.00;99.90;;;;;;5033103;28;20177;-84
2023/03/08 05:39:50;;;;;;;5.80;3.87;;;1.00;99.90;;;;;;5033544;28;20205;-81
2023/03/08 05:42:16;;;;;;;5.67;4.07;;;1.00;99.90;;;;;;5033351;28;20178;-81
2023/03/08 05:44:42;;;;;;;6.10;4.13;;;0.90;99.90;;;;;;5033107;28;20174;-83
2023/03/08 05:47:08;;;;;;;5.20;4.07;;;0.90;99.90;;;;;;5023831;28;20172;-81
2023/03/08 05:49:33;;;;;;;5.40;3.90;;;0.90;99.90;;;;;;5033867;28;20252;-80
2023/03/08 05:51:59;;;;;;;5.47;4.00;;;1.00;99.90;;;;;;5032596;28;20637;-80
2023/03/08 05:54:24;;;;;;;4.70;3.70;;;1.00;99.90;;;;;;5033070;28;20182;-81
2023/03/08 05:56:50;;;;;;;5.63;3.80;;;1.00;99.90;;;;;;5032710;28;20182;-80
2023/03/08 05:59:16;;;;;;;6.73;4.30;;;1.00;99.90;;;;;;5032580;28;20217;-81
2023/03/08 06:01:41;;;;;;;5.67;3.97;;;1.00;99.90;;;;;;5032535;28;20206;-81
2023/03/08 06:04:07;;;;;;;5.40;3.63;;;1.00;99.90;;;;;;5034192;28;20174;-82
2023/03/08 06:06:32;;;;;;;5.77;3.93;;;1.00;99.90;;;;;;5034320;28;20245;-80
2023/03/08 06:08:58;;;;;;;4.83;3.37;;;1.00;99.90;;;;;;5033257;28;20214;-79
2023/03/08 06:11:23;;;;;;;4.93;3.90;;;1.70;99.90;;;;;;5032581;28;20178;-78
2023/03/08 06:13:49;;;;;;;4.23;3.20;;;2.60;99.90;;;;;;5032934;28;20186;-80
2023/03/08 06:16:15;;;;;;;4.27;3.47;;;3.20;99.90;;;;;;5032845;28;20220;-78
2023/03/08 06:18:41;;;;;;;4.60;3.60;;;3.60;99.90;;;;;;5033563;28;20245;-81
2023/03/08 06:21:18;;;;;;;4.23;3.47;;;3.50;99.90;;;;;;5033300;28;20176;-81
2023/03/08 06:23:44;;;;;;;5.20;4.20;;;3.00;99.90;;;;;;5033850;28;20197;-80
2023/03/08 06:26:10;;;;;;;6.40;4.47;;;2.60;99.90;;;;;;5031935;28;20179;-82
2023/03/08 06:28:39;;;;;;;7.00;5.30;;;2.20;99.90;;;;;;5032990;28;20204;-81
2023/03/08 06:31:05;;;;;;;7.30;5.43;;;2.00;99.90;;;;;;5031721;28;20181;-81
2023/03/08 06:33:32;;;;;;;9.13;5.83;;;1.70;99.90;;;;;;5031719;28;20201;-81
2023/03/08 06:36:04;;;;;;;8.40;5.77;;;1.50;99.90;;;;;;5031836;28;20186;-81
2023/03/08 06:38:31;;;;;;;8.97;6.23;;;1.50;99.90;;;;;;5031695;28;20199;-82
2023/03/08 06:40:57;;;;;;;9.07;6.03;;;1.40;99.90;;;;;;5031659;28;20258;-81
2023/03/08 06:43:23;;;;;;;9.60;6.87;;;1.50;99.90;;;;;;5031931;28;20175;-85
2023/03/08 06:45:49;;;;;;;12.03;8.20;;;1.40;99.90;;;;;;5032933;28;20179;-81
2023/03/08 06:48:15;;;;;;;11.07;8.70;;;1.40;99.90;;;;;;5031558;28;20183;-82
2023/03/08 06:50:41;;;;;;;11.40;8.33;;;1.40;99.90;;;;;;5024115;28;20179;-82
2023/03/08 06:53:07;;;;;;;13.80;9.63;;;1.30;99.90;;;;;;5023312;28;20171;-82
2023/03/08 06:55:38;;;;;;;12.57;8.83;;;1.30;99.90;;;;;;5031450;28;20596;-82
2023/03/08 06:58:04;;;;;;;13.70;9.17;;;1.40;99.90;;;;;;5031950;28;20240;-82
2023/03/08 07:00:29;;;;;;;11.73;8.03;;;1.40;99.90;;;;;;5032228;28;20210;-83
2023/03/08 07:02:55;;;;;;;11.90;8.27;;;1.40;99.90;;;;;;5032824;28;20170;-84
2023/03/08 07:05:21;;;;;;;13.07;9.03;;;1.40;99.90;;;;;;5032668;28;20258;-81
2023/03/08 07:07:47;;;;;;;14.00;8.60;;;1.50;99.90;;;;;;5031195;28;20178;-81
2023/03/08 07:10:14;;;;;;;13.27;8.43;;;1.50;99.90;;;;;;5032311;28;20311;-82
2023/03/08 07:12:42;;;;;;;14.87;8.80;;;1.50;99.90;;;;;;5032306;28;20175;-82
2023/03/08 07:15:13;;;;;;;12.23;8.43;;;1.50;99.90;;;;;;5031221;28;20280;-81
2023/03/08 07:17:40;;;;;;;13.60;8.57;;;1.50;99.90;;;;;;5032163;28;20178;-82
2023/03/08 07:20:06;;;;;;;13.83;8.33;;;1.50;99.90;;;;;;5031804;28;20697;-81
2023/03/08 07:22:32;;;;;;;13.40;8.77;;;1.50;99.90;;;;;;5031194;28;20178;-81
2023/03/08 07:24:58;;;;;;;14.20;9.90;;;1.50;99.90;;;;;;5031085;28;20265;-82
2023/03/08 07:27:23;;;;;;;14.47;10.03;;;1.50;99.90;;;;;;5030891;28;20660;-82
2023/03/08 07:29:49;;;;;;;16.20;9.30;;;1.50;99.90;;;;;;5030647;28;20669;-81
2023/03/08 07:32:15;;;;;;;15.67;9.67;;;1.50;99.90;;;;;;5032139;28;20206;-80
2023/03/08 07:34:40;;;;;;;16.83;9.10;;;1.50;99.90;;;;;;5032823;28;20205;-82
2023/03/08 07:37:14;;;;;;;13.97;9.77;;;1.50;99.90;;;;;;5031234;28;20552;-82
2023/03/08 07:39:40;;;;;;;13.07;8.63;;;1.50;99.90;;;;;;5031247;28;20303;-81
2023/03/08 07:42:06;;;;;;;15.63;9.30;;;1.50;99.90;;;;;;5032793;28;20178;-82
2023/03/08 07:44:32;;;;;;;14.43;9.57;;;1.50;99.90;;;;;;5032681;28;20549;-82
2023/03/08 07:46:57;;;;;;;15.47;9.60;;;1.50;99.90;;;;;;5032687;28;20612;-82
2023/03/08 07:49:23;;;;;;;13.23;8.43;;;1.60;99.90;;;;;;5030941;28;20202;-83
2023/03/08 07:51:50;;;;;;;14.20;8.40;;;1.80;99.90;;;;;;5032456;28;20178;-83
2023/03/08 07:54:16;;;;;;;14.97;8.90;;;1.80;99.90;;;;;;5014925;28;20178;-82
2023/03/08 07:56:41;;;;;;;12.37;7.63;;;1.90;99.90;;;;;;5032551;28;20178;-83
2023/03/08 07:59:07;;;;;;;13.60;8.30;;;1.90;99.90;;;;;;5032458;28;20206;-82
2023/03/08 08:01:33;;;;;;;11.73;7.73;;;2.00;99.90;;;;;;5032308;28;20258;-83
2023/03/08 08:03:59;;;;;;;10.63;7.77;;;2.00;99.90;;;;;;5032379;28;20175;-83
2023/03/08 08:06:25;;;;;;;14.67;8.50;;;2.00;99.90;;;;;;5014796;28;20224;-83
2023/03/08 08:08:51;;;;;;;12.87;8.57;;;2.00;99.90;;;;;;5014322;28;20205;-83
2023/03/08 08:11:18;;;;;;;13.50;8.37;;;1.90;99.90;;;;;;5017841;28;20200;-83
2023/03/08 08:13:45;;;;;;;12.23;7.77;;;2.00;99.90;;;;;;5018595;28;20170;-82
2023/03/08 08:16:12;;;;;;;11.37;8.03;;;2.00;99.90;;;;;;5036133;28;20174;-82
2023/03/08 08:18:38;;;;;;;10.97;7.60;;;2.00;99.90;;;;;;5018099;28;20700;-83
2023/03/08 08:21:06;;;;;;;12.07;8.03;;;2.00;99.90;;;;;;5030258;28;20170;-82
2023/03/08 08:23:33;;;;;;;11.23;7.57;;;2.10;99.90;;;;;;5034771;28;20170;-83
2023/03/08 08:25:59;;;;;;;13.17;8.47;;;2.20;99.90;;;;;;5036072;28;20257;-83
2023/03/08 08:28:25;;;;;;;13.27;8.43;;;2.20;99.90;;;;;;5035833;28;20256;-83
2023/03/08 08:31:00;;;;;;;15.00;9.67;;;2.10;99.90;;;;;;5034635;28;20174;-82
2023/03/08 08:33:27;;;;;;;14.23;9.57;;;2.10;99.90;;;;;;5035677;28;20249;-82
2023/03/08 08:35:52;;;;;;;12.40;9.33;;;2.10;99.90;;;;;;5035782;28;20538;-82
2023/03/08 08:38:18;;;;;;;12.87;8.17;;;2.10;99.90;;;;;;5035774;28;20680;-83
2023/03/08 08:40:44;;;;;;;13.03;8.23;;;2.10;99.90;;;;;;5034703;28;20184;-83
2023/03/08 08:43:09;;;;;;;11.73;8.77;;;2.10;99.90;;;;;;5034257;28;20171;-83
2023/03/08 08:45:35;;;;;;;11.17;8.10;;;2.00;99.90;;;;;;5035953;28;20174;-82
2023/03/08 08:48:01;;;;;;;11.73;8.00;;;2.10;99.90;;;;;;5035586;28;20174;-82
2023/03/08 08:50:26;;;;;;;11.07;7.40;;;2.20;99.90;;;;;;5035298;28;20734;-84
2023/03/08 08:52:52;;;;;;;11.90;7.97;;;2.20;99.90;;;;;;5017825;28;20184;-83
2023/03/08 08:55:17;;;;;;;10.17;7.20;;;2.20;99.90;;;;;;5017920;28;20210;-82
2023/03/08 08:57:43;;;;;;;11.03;7.47;;;2.20;99.90;;;;;;5035634;28;20186;-85
2023/03/08 09:00:09;;;;;;;9.20;6.40;;;2.10;99.90;;;;;;5035335;28;20190;-82
2023/03/08 09:02:35;;;;;;;10.13;6.73;;;2.10;99.90;;;;;;5035449;28;20715;-82
2023/03/08 09:05:01;;;;;;;9.40;7.20;;;2.00;99.90;;;;;;5035536;28;20196;-83
2023/03/08 09:07:26;;;;;;;10.47;7.40;;;2.00;99.90;;;;;;5017546;28;20174;-82
2023/03/08 09:09:55;;;;;;;12.03;7.70;;;2.00;99.90;;;;;;5017002;28;20218;-78
2023/03/08 09:12:21;;;;;;;10.00;7.07;;;1.90;99.90;;;;;;5017571;28;20178;-78
2023/03/08 09:14:46;;;;;;;8.97;6.73;;;2.00;99.90;;;;;;5035293;28;20541;-79
2023/03/08 09:17:12;;;;;;;10.20;6.63;;;2.00;99.90;;;;;;5034940;28;20182;-78
2023/03/08 09:19:38;;;;;;;9.40;6.60;;;2.00;99.90;;;;;;5035020;28;20206;-76
2023/03/08 09:22:03;;;;;;;8.77;6.23;;;2.00;99.90;;;;;;5034083;28;20645;-78
2023/03/08 09:24:29;;;;;;;8.83;6.20;;;2.00;99.90;;;;;;5016924;28;20181;-78
2023/03/08 09:26:54;;;;;;;9.53;6.00;;;2.10;99.90;;;;;;5016886;28;20590;-77
2023/03/08 09:29:20;;;;;;;7.50;5.37;;;2.00;99.90;;;;;;5017192;28;20738;-79
2023/03/08 09:31:45;;;;;;;9.33;6.03;;;2.00;99.90;;;;;;5034904;28;20517;-80
2023/03/08 09:34:13;;;;;;;8.93;6.17;;;2.00;99.90;;;;;;5017406;28;20269;-80
2023/03/08 09:36:39;;;;;;;7.57;5.10;;;1.90;99.90;;;;;;5034870;28;20185;-83
2023/03/08 09:39:07;;;;;;;7.23;5.27;;;1.80;99.90;;;;;;5024813;28;20209;-83
2023/03/08 09:41:39;;;;;;;8.47;4.87;;;1.80;99.90;;;;;;5034578;28;20178;-83
2023/03/08 09:44:26;;;;;;;7.80;5.33;;;1.70;99.90;;;;;;5034571;28;20177;-84
2023/03/08 09:47:12;;;;;;;7.53;5.03;;;1.70;99.90;;;;;;5016602;28;20210;-82
2023/03/08 09:49:41;;;;;;;7.50;4.83;;;1.70;99.90;;;;;;5016725;28;20194;-80
2023/03/08 09:52:11;;;;;;;6.70;4.77;;;1.70;99.90;;;;;;5024866;28;20182;-82
2023/03/08 09:54:38;;;;;;;5.90;4.37;;;1.60;99.90;;;;;;5024703;28;20166;-83
2023/03/08 09:57:15;;;;;;;4.83;4.10;;;1.70;99.90;;;;;;5016348;28;20221;-83
2023/03/08 09:59:52;;;;;;;6.70;4.33;;;1.60;99.90;;;;;;5033950;28;20216;-83
2023/03/08 10:02:35;;;;;;;6.50;4.13;;;1.60;99.90;;;;;;5016345;28;20154;-83
2023/03/08 10:05:31;;;;;;;5.77;4.00;;;1.60;99.90;;;;;;5033771;28;20167;-84
2023/03/08 10:08:00;;;;;;;5.10;4.00;;;1.70;99.90;;;;;;5033646;28;20174;-83
2023/03/08 10:10:46;;;;;;;4.87;3.63;;;1.80;99.90;;;;;;5033153;28;20221;-83
2023/03/08 10:13:32;;;;;;;6.30;4.00;;;1.90;99.90;;;;;;5030346;28;20531;-83
2023/03/08 10:16:13;;;;;;;6.87;4.20;;;2.00;99.90;;;;;;5032212;28;20209;-83
2023/03/08 10:18:46;;;;;;;5.93;4.27;;;1.90;99.90;;;;;;5032314;28;20210;-83
2023/03/08 10:21:16;;;;;;;6.30;4.23;;;2.00;99.90;;;;;;5032292;28;20182;-82
2023/03/08 10:23:44;;;;;;;7.03;4.57;;;2.00;99.90;;;;;;5032176;28;20181;-83
2023/03/08 10:26:11;;;;;;;7.33;5.67;;;2.00;99.90;;;;;;5033244;28;20171;-83
2023/03/08 10:28:38;;;;;;;7.27;4.97;;;2.00;99.90;;;;;;5031910;28;20300;-83
2023/03/08 10:31:25;;;;;;;6.87;5.13;;;2.10;99.90;;;;;;5032793;28;20553;-84
2023/03/08 10:34:01;;;;;;;6.40;4.90;;;2.10;99.90;;;;;;5032854;28;20253;-81
2023/03/08 10:36:26;;;;;;;8.00;5.10;;;2.20;99.90;;;;;;5032945;28;20177;-81
2023/03/08 10:39:08;;;;;;;10.77;8.03;;;2.30;99.90;;;;;;5032863;28;20206;-81
2023/03/08 10:41:43;;;;;;;7.83;5.73;;;2.30;99.90;;;;;;5030740;28;20244;-83
2023/03/08 10:44:13;;;;;;;8.33;5.50;;;2.30;99.90;;;;;;5031676;28;20177;-82
2023/03/08 10:46:47;;;;;;;7.83;5.70;;;2.40;99.90;;;;;;5032488;28;20181;-80
2023/03/08 10:49:17;;;;;;;7.83;5.40;;;2.40;99.90;;;;;;5029369;28;20202;-81
2023/03/08 10:51:58;;;;;;;8.00;5.80;;;2.40;99.90;;;;;;5015389;28;20236;-81
2023/03/08 10:54:24;;;;;;;8.60;5.40;;;2.50;99.90;;;;;;5030792;28;20171;-81
2023/03/08 10:56:59;;;;;;;8.07;6.30;;;2.50;99.90;;;;;;5030685;28;20175;-81
2023/03/08 10:59:33;;;;;;;7.97;5.47;;;2.50;99.90;;;;;;5031521;28;20205;-80
2023/03/08 11:02:02;;;;;;;8.97;6.23;;;2.50;99.90;;;;;;5032482;28;20175;-82
2023/03/08 11:04:29;;;;;;;8.73;6.07;;;2.50;99.90;;;;;;5031597;28;20174;-80
2023/03/08 11:06:54;;;;;;;7.90;5.40;;;2.50;99.90;;;;;;5031320;28;20198;-80
2023/03/08 11:09:35;;;;;;;7.67;5.20;;;2.50;99.90;;;;;;5061450;23;20674;-75
2023/03/08 11:12:01;;;;;;;10.17;7.10;;;2.70;99.90;;;;;;5053070;28;20636;-77
2023/03/08 11:14:28;;;;;;;7.40;5.13;;;2.70;99.90;;;;;;5035074;28;20174;-76
2023/03/08 11:16:57;;;;;;;8.07;5.57;;;2.70;99.90;;;;;;5052816;28;20174;-76
2023/03/08 11:19:41;;;;;;;6.50;4.40;;;2.60;99.90;;;;;;5034664;28;20205;-76
2023/03/08 11:22:07;;;;;;;6.40;4.40;;;2.50;99.90;;;;;;5034959;28;20169;-77
2023/03/08 11:25:02;;;;;;;7.00;4.60;;;2.40;99.90;;;;;;5035221;28;20260;-77
2023/03/08 11:27:46;;;;;;;6.23;4.30;;;2.40;99.90;;;;;;5015872;28;20708;-78
2023/03/08 11:30:34;;;;;;;7.13;4.53;;;2.40;99.90;;;;;;5034528;28;20190;-80
2023/03/08 11:33:16;;;;;;;6.20;4.73;;;2.50;99.90;;;;;;5034847;28;20174;-77
2023/03/08 11:36:03;;;;;;;5.60;4.47;;;2.50;99.90;;;;;;5035139;28;20200;-78
2023/03/08 11:38:31;;;;;;;6.77;4.80;;;2.60;99.90;;;;;;5034514;28;20209;-79
2023/03/08 11:41:03;;;;;;;6.50;4.73;;;2.60;99.90;;;;;;5034463;28;20308;-79
2023/03/08 11:44:05;;;;;;;6.40;4.60;;;2.60;99.90;;;;;;5035023;28;20169;-79
2023/03/08 11:46:54;;;;;;;7.03;4.77;;;2.60;99.90;;;;;;5059485;28;20200;-79
2023/03/08 11:49:31;;;;;;;7.00;4.80;;;2.70;99.90;;;;;;5041452;28;20193;-79
2023/03/08 11:52:28;;;;;;;6.23;4.53;;;2.70;99.90;;;;;;5041847;28;20655;-79
2023/03/08 11:55:21;;;;;;;5.80;4.00;;;2.80;99.90;;;;;;5059455;28;20177;-79
2023/03/08 11:57:54;;;;;;;5.80;4.30;;;2.80;99.90;;;;;;5058869;28;20196;-77
2023/03/08 12:00:39;;;;;;;5.23;4.00;;;2.80;99.90;;;;;;5058258;28;20196;-76
2023/03/08 12:03:11;;;;;;;4.93;4.00;;;2.90;99.90;;;;;;5041331;28;20181;-76
2023/03/08 12:05:47;;;;;;;6.13;4.50;;;3.00;99.90;;;;;;5039851;28;20177;-77
2023/03/08 12:08:20;;;;;;;5.43;4.00;;;3.00;99.90;;;;;;5058499;28;20610;-76
2023/03/08 12:11:06;;;;;;;4.63;3.90;;;2.90;99.90;;;;;;5040466;28;20297;-77
2023/03/08 12:13:36;;;;;;;5.43;3.80;;;2.90;99.90;;;;;;5058545;28;20204;-76
2023/03/08 12:16:11;;;;;;;4.97;3.83;;;2.90;99.90;;;;;;5058740;28;20183;-76
2023/03/08 12:18:54;;;;;;;5.27;4.00;;;2.90;99.90;;;;;;5040556;28;20193;-76
2023/03/08 12:21:23;;;;;;;4.93;3.73;;;2.80;99.90;;;;;;5057084;28;20257;-76
2023/03/08 12:24:07;;;;;;;6.40;4.00;;;2.80;99.90;;;;;;5040918;28;20174;-76
2023/03/08 12:27:06;;;;;;;4.97;3.87;;;2.80;99.90;;;;;;5040881;28;20173;-77
2023/03/08 12:29:45;;;;;;;4.97;3.97;;;2.90;99.90;;;;;;5058706;28;20681;-77
2023/03/08 12:32:12;;;;;;;5.27;4.00;;;2.90;99.90;;;;;;5058768;28;20181;-78
2023/03/08 12:34:41;;;;;;;5.83;4.03;;;2.90;99.90;;;;;;5040649;28;20633;-78
2023/03/08 12:37:25;;;;;;;4.97;3.60;;;2.90;99.90;;;;;;5058936;28;20180;-77
2023/03/08 12:39:57;;;;;;;5.13;3.80;;;2.90;99.90;;;;;;5058475;28;20578;-77
2023/03/08 12:42:40;;;;;;;5.07;3.50;;;3.00;99.90;;;;;;5040859;28;20529;-76
2023/03/08 12:45:22;;;;;;;4.50;3.60;;;3.10;99.90;;;;;;5058877;28;20171;-78
2023/03/08 12:48:19;;;;;;;4.23;3.47;;;3.30;99.90;;;;;;5058589;28;20215;-80
2023/03/08 12:50:57;;;;;;;3.40;3.07;;;3.30;99.90;;;;;;5013192;28;20230;-82
2023/03/08 12:53:31;;;;;;;3.87;3.03;;;3.30;99.90;;;;;;5040837;28;20167;-81
2023/03/08 12:56:12;;;;;;;2.93;2.60;;;3.30;99.90;;;;;;5039044;28;20167;-81
2023/03/08 12:58:55;;;;;;;2.80;2.53;;;3.30;99.90;;;;;;5037939;28;20285;-81
2023/03/08 13:01:43;;;;;;;2.30;1.97;;;3.30;99.90;;;;;;5037724;28;20207;-81
2023/03/08 13:04:27;;;;;;;2.10;1.90;;;3.30;99.90;;;;;;5037408;28;20164;-82
2023/03/08 13:06:55;;;;;;;2.60;2.17;;;3.20;99.90;;;;;;5055266;28;20177;-80
2023/03/08 13:09:32;;;;;;;2.33;2.03;;;3.30;99.90;;;;;;5054928;28;20279;-80